Greenwich, United Kingdom
Current Conditions -  °F | °C
As of 5:50 AM on Saturday 20 Dec 2014 (Local Time) from EGLC Reporting Station
Broken Clouds Broken Clouds  
Wind Chill:   Ceiling: 4000
Heat Index:   Visibility: 6mi
Dew Point:   Wind: 16mph
Humidity: 71%   Direction: 250°WSW
Pressure: 30.24"   Gusts: NA
Location:  51.48°N, 0.01°W
Report Text: EGLC 200550Z 25014KT 9999 FEW025 BKN040 07/02 Q1024
Loading
Personal Weather Stations






























Interactive Weather Map New forecast layout! Learn more

10-Day Weather Forecast

Advertisements
Track Severe Weather on mobile